createdAt,value
2022-10-16T00:01:33.138Z,99106.16
2022-10-16T00:04:01.496Z,99116.34
2022-10-16T00:06:29.817Z,99107.38
2022-10-16T00:08:57.408Z,99104.25
2022-10-16T00:11:30.251Z,99116.34
2022-10-16T00:14:00.376Z,99111.78
2022-10-16T00:16:29.514Z,99117.19
2022-10-16T00:18:57.128Z,99109.72
2022-10-16T00:21:27.896Z,99115.97
2022-10-16T00:24:00.480Z,99128.06
2022-10-16T00:26:30.468Z,99124.56
2022-10-16T00:28:57.688Z,99143.06
2022-10-16T00:31:26.063Z,99149.34
2022-10-16T00:33:53.472Z,99147.06
2022-10-16T00:36:23.781Z,99149.59
2022-10-16T00:38:56.635Z,99148.97
2022-10-16T00:41:25.844Z,99143.34
2022-10-16T00:43:58.426Z,99146.88
2022-10-16T00:46:43.046Z,99161.03
2022-10-16T00:49:14.202Z,99164.75
2022-10-16T00:51:54.841Z,99179.34
2022-10-16T00:54:30.460Z,99186.81
2022-10-16T00:57:04.726Z,99188.66
2022-10-16T00:59:37.731Z,99182.63
2022-10-16T01:02:08.131Z,99183.00
2022-10-16T01:04:55.608Z,99193.00
2022-10-16T01:07:41.049Z,99197.16
2022-10-16T01:10:43.078Z,99215.06
2022-10-16T01:13:23.082Z,99216.09
2022-10-16T01:16:07.802Z,99244.19
2022-10-16T01:18:43.963Z,99240.25
2022-10-16T01:21:29.318Z,99224.63
2022-10-16T01:24:24.037Z,99229.59
2022-10-16T01:27:14.124Z,99205.84
2022-10-16T01:30:10.953Z,99210.03
2022-10-16T01:32:42.353Z,99206.06
2022-10-16T01:35:13.467Z,99220.56
2022-10-16T01:37:49.585Z,99222.19
2022-10-16T01:40:19.703Z,99226.94
2022-10-16T01:42:54.547Z,99228.56
2022-10-16T01:45:22.565Z,99234.41
2022-10-16T01:47:50.987Z,99250.75
2022-10-16T01:50:21.834Z,99247.63
2022-10-16T01:52:54.357Z,99237.59
2022-10-16T01:55:29.333Z,99247.09
2022-10-16T01:57:56.397Z,99249.97
2022-10-16T02:00:24.486Z,99248.47
2022-10-16T02:02:55.115Z,99255.31
2022-10-16T02:05:32.429Z,99260.25
2022-10-16T02:08:00.584Z,99255.06
2022-10-16T02:10:32.848Z,99261.50
2022-10-16T02:13:49.361Z,99270.38
2022-10-16T02:16:16.962Z,99266.81
2022-10-16T02:18:45.208Z,99273.00
2022-10-16T02:21:24.273Z,99276.94
2022-10-16T02:24:27.713Z,99279.69
2022-10-16T02:27:11.743Z,99288.22
2022-10-16T02:29:51.306Z,99296.31
2022-10-16T02:32:23.216Z,99298.28
2022-10-16T02:34:51.836Z,99304.31
2022-10-16T02:37:20.241Z,99309.66
2022-10-16T02:39:47.088Z,99315.81
2022-10-16T02:42:15.286Z,99327.44
2022-10-16T02:44:42.424Z,99317.84
2022-10-16T02:47:09.328Z,99319.91
2022-10-16T02:49:36.526Z,99332.94
2022-10-16T02:52:04.169Z,99335.19
2022-10-16T02:54:31.123Z,99339.28
2022-10-16T02:56:58.011Z,99345.72
2022-10-16T02:59:24.798Z,99353.34
2022-10-16T03:01:51.729Z,99357.44
2022-10-16T03:04:18.604Z,99363.03
2022-10-16T03:06:45.389Z,99362.38
2022-10-16T03:09:12.333Z,99374.81
2022-10-16T03:11:39.176Z,99375.56
2022-10-16T03:14:06.097Z,99377.28
2022-10-16T03:16:33.205Z,99380.50
2022-10-16T03:19:00.071Z,99386.75
2022-10-16T03:21:26.851Z,99388.41
2022-10-16T03:23:53.652Z,99391.47
2022-10-16T03:26:20.451Z,99398.75
2022-10-16T03:28:47.459Z,99406.00
2022-10-16T03:31:14.235Z,99405.34
2022-10-16T03:33:41.193Z,99409.72
2022-10-16T03:36:07.967Z,99415.97
2022-10-16T03:38:34.800Z,99420.50
2022-10-16T03:41:01.744Z,99428.59
2022-10-16T03:43:28.850Z,99436.03
2022-10-16T03:45:55.703Z,99437.06
2022-10-16T03:48:22.498Z,99447.22
2022-10-16T03:50:49.532Z,99460.97
2022-10-16T03:53:16.680Z,99471.94
2022-10-16T03:55:44.649Z,99470.25
2022-10-16T03:58:12.368Z,99475.47
2022-10-16T04:00:43.929Z,99476.50
2022-10-16T04:03:12.014Z,99475.19
2022-10-16T04:05:38.984Z,99479.94
2022-10-16T04:08:05.800Z,99496.09
2022-10-16T04:10:33.086Z,99492.75
2022-10-16T04:12:59.920Z,99507.25
2022-10-16T04:15:27.347Z,99506.78
2022-10-16T04:17:54.337Z,99505.09
2022-10-16T04:20:21.368Z,99507.16
2022-10-16T04:22:48.373Z,99514.75
2022-10-16T04:25:15.303Z,99518.28
2022-10-16T04:27:45.188Z,99525.25
2022-10-16T04:30:13.417Z,99531.50
2022-10-16T04:32:40.930Z,99539.09
2022-10-16T04:35:08.608Z,99551.53
2022-10-16T04:37:35.715Z,99547.38
2022-10-16T04:40:02.520Z,99550.22
2022-10-16T04:42:29.384Z,99558.31
2022-10-16T04:44:56.232Z,99567.78
2022-10-16T04:47:23.122Z,99578.75
2022-10-16T04:49:49.929Z,99587.66
2022-10-16T04:52:17.353Z,99588.03
2022-10-16T04:54:46.256Z,99593.78
2022-10-16T04:57:13.369Z,99597.84
2022-10-16T04:59:40.155Z,99607.97
2022-10-16T05:02:07.022Z,99610.34
2022-10-16T05:04:33.835Z,99617.94
2022-10-16T05:07:00.669Z,99613.75
2022-10-16T05:09:27.755Z,99615.78
2022-10-16T05:11:54.564Z,99614.25
2022-10-16T05:14:21.344Z,99624.75
2022-10-16T05:16:49.373Z,99635.53
2022-10-16T05:19:26.808Z,99643.13
2022-10-16T05:21:54.954Z,99644.09
2022-10-16T05:24:21.762Z,99653.22
2022-10-16T05:26:48.999Z,99660.16
2022-10-16T05:29:15.761Z,99663.66
2022-10-16T05:31:42.585Z,99682.53
2022-10-16T05:34:09.466Z,99688.25
2022-10-16T05:36:36.292Z,99703.09
2022-10-16T05:39:03.939Z,99703.09
2022-10-16T05:41:30.752Z,99709.31
2022-10-16T05:43:57.500Z,99705.09
2022-10-16T05:46:24.584Z,99706.31
2022-10-16T05:48:54.409Z,99707.47
2022-10-16T05:51:21.459Z,99722.13
2022-10-16T05:53:48.692Z,99725.34
2022-10-16T05:56:15.744Z,99725.69
2022-10-16T05:58:43.260Z,99725.34
2022-10-16T06:01:17.322Z,99730.22
2022-10-16T06:03:44.710Z,99743.16
2022-10-16T06:06:15.239Z,99747.06
2022-10-16T06:08:44.622Z,99746.53
2022-10-16T06:11:25.428Z,99750.59
2022-10-16T06:14:02.921Z,99745.53
2022-10-16T06:16:30.440Z,99752.63
2022-10-16T06:18:57.660Z,99750.09
2022-10-16T06:21:26.368Z,99754.97
2022-10-16T06:23:54.074Z,99761.53
2022-10-16T06:26:24.785Z,99761.69
2022-10-16T06:28:51.681Z,99762.69
2022-10-16T06:31:19.125Z,99769.94
2022-10-16T06:33:48.075Z,99771.13
2022-10-16T06:36:19.101Z,99786.06
2022-10-16T06:38:45.981Z,99791.09
2022-10-16T06:41:19.343Z,99796.00
2022-10-16T06:43:47.161Z,99802.06
2022-10-16T06:46:16.907Z,99804.56
2022-10-16T06:48:44.345Z,99800.56
2022-10-16T06:51:16.409Z,99813.16
2022-10-16T06:54:06.128Z,99807.44
2022-10-16T06:56:34.485Z,99812.81
2022-10-16T06:59:01.679Z,99822.59
2022-10-16T07:01:29.150Z,99839.44
2022-10-16T07:03:56.042Z,99842.78
2022-10-16T07:06:26.269Z,99843.47
2022-10-16T07:08:53.673Z,99846.84
2022-10-16T07:11:24.395Z,99859.94
2022-10-16T07:13:55.099Z,99861.63
2022-10-16T07:16:27.819Z,99862.31
2022-10-16T07:19:00.769Z,99870.06
2022-10-16T07:21:37.427Z,99878.81
2022-10-16T07:24:07.693Z,99872.25
2022-10-16T07:26:37.839Z,99871.25
2022-10-16T07:29:05.042Z,99874.47
2022-10-16T07:31:32.343Z,99877.47
2022-10-16T07:34:01.284Z,99881.88
2022-10-16T07:36:28.322Z,99876.84
2022-10-16T07:38:58.644Z,99882.72
2022-10-16T07:41:28.412Z,99879.53
2022-10-16T07:43:57.576Z,99885.41
2022-10-16T07:46:24.818Z,99910.53
2022-10-16T07:48:52.008Z,99917.09
2022-10-16T07:51:23.205Z,99923.28
2022-10-16T07:53:50.810Z,99935.06
2022-10-16T07:56:19.395Z,99940.38
2022-10-16T07:58:46.945Z,99936.94
2022-10-16T08:01:16.738Z,99941.25
2022-10-16T08:03:51.520Z,99946.38
2022-10-16T08:06:23.475Z,99945.81
2022-10-16T08:08:53.797Z,99944.03
2022-10-16T08:11:20.642Z,99956.47
2022-10-16T08:13:47.521Z,99971.91
2022-10-16T08:16:14.677Z,99988.25
2022-10-16T08:18:42.065Z,99976.84
2022-10-16T08:21:20.143Z,99980.19
2022-10-16T08:23:51.530Z,99994.13
2022-10-16T08:26:24.833Z,99992.22
2022-10-16T08:28:52.987Z,99998.56
2022-10-16T08:31:21.094Z,100002.91
2022-10-16T08:33:48.914Z,100004.88
2022-10-16T08:36:17.370Z,100014.28
2022-10-16T08:38:44.269Z,100012.91
2022-10-16T08:41:13.969Z,100013.19
2022-10-16T08:44:01.596Z,100013.00
2022-10-16T08:46:57.919Z,100031.22
2022-10-16T08:49:25.852Z,100037.19
2022-10-16T08:51:53.433Z,100037.47
2022-10-16T08:54:46.272Z,100043.63
2022-10-16T08:57:24.230Z,100046.25
2022-10-16T08:59:52.743Z,100043.53
2022-10-16T09:02:36.761Z,100052.13
2022-10-16T09:05:12.711Z,100057.19
2022-10-16T09:07:54.612Z,100051.22
2022-10-16T09:10:40.802Z,100060.00
2022-10-16T09:13:31.058Z,100058.81
2022-10-16T09:16:31.530Z,100067.41
2022-10-16T09:19:10.887Z,100073.28
2022-10-16T09:21:42.810Z,100084.13
2022-10-16T09:24:29.325Z,100079.53
2022-10-16T09:26:56.528Z,100090.38
2022-10-16T09:29:26.363Z,100088.22
2022-10-16T09:31:56.472Z,100085.50
2022-10-16T09:34:35.948Z,100086.53
2022-10-16T09:37:10.151Z,100091.13
2022-10-16T09:39:48.879Z,100104.66
2022-10-16T09:42:37.693Z,100099.59
2022-10-16T09:45:05.572Z,100109.78
2022-10-16T09:47:33.281Z,100102.66
2022-10-16T09:50:22.197Z,100103.72
2022-10-16T09:52:49.125Z,100092.22
2022-10-16T09:55:19.545Z,100085.97
2022-10-16T09:57:56.226Z,100093.06
2022-10-16T10:00:25.623Z,100103.06
2022-10-16T10:05:41.568Z,100109.44
2022-10-16T10:08:19.365Z,100109.03
2022-10-16T10:10:49.915Z,100107.00
2022-10-16T10:13:28.379Z,100110.34
2022-10-16T10:15:55.331Z,100115.09
2022-10-16T10:18:25.116Z,100104.91
2022-10-16T10:21:01.705Z,100100.50
2022-10-16T10:23:31.223Z,100100.16
2022-10-16T10:26:14.037Z,100095.19
2022-10-16T10:29:22.505Z,100095.69
2022-10-16T10:32:11.544Z,100102.75
2022-10-16T10:34:47.711Z,100091.56
2022-10-16T10:37:39.059Z,100087.81
2022-10-16T10:40:29.755Z,100087.81
2022-10-16T10:43:05.880Z,100090.16
2022-10-16T10:45:46.377Z,100099.31
2022-10-16T10:48:50.567Z,100102.94
2022-10-16T10:51:29.577Z,100106.25
2022-10-16T10:54:24.579Z,100117.28
2022-10-16T10:57:09.133Z,100113.69
2022-10-16T10:59:57.331Z,100114.72
2022-10-16T11:02:56.638Z,100115.91
2022-10-16T11:05:42.399Z,100102.31
2022-10-16T11:08:19.123Z,100094.69
2022-10-16T11:10:54.847Z,100096.25
2022-10-16T11:13:44.938Z,100091.38
2022-10-16T11:16:24.931Z,100094.66
2022-10-16T11:19:00.079Z,100093.56
2022-10-16T11:21:31.776Z,100091.78
2022-10-16T11:24:07.736Z,100098.78
2022-10-16T11:26:41.183Z,100096.16
2022-10-16T11:29:19.499Z,100092.44
2022-10-16T11:31:54.935Z,100103.81
2022-10-16T11:34:43.072Z,100110.34
2022-10-16T11:37:19.762Z,100104.94
2022-10-16T11:39:47.948Z,100110.63
2022-10-16T11:42:30.722Z,100111.25
2022-10-16T11:45:26.010Z,100113.59
2022-10-16T11:48:03.849Z,100114.59
2022-10-16T11:50:41.051Z,100104.81
2022-10-16T11:53:49.129Z,100107.59
2022-10-16T11:56:21.656Z,100115.31
2022-10-16T11:59:13.972Z,100107.41
2022-10-16T12:02:26.907Z,100104.50
2022-10-16T12:05:17.972Z,100109.13
2022-10-16T12:08:06.756Z,100106.19
2022-10-16T12:13:43.448Z,100097.84
2022-10-16T12:16:13.372Z,100096.63
2022-10-16T12:18:43.688Z,100097.91
2022-10-16T12:21:14.626Z,100102.59
2022-10-16T12:23:53.485Z,100105.94
2022-10-16T12:26:42.893Z,100116.88
2022-10-16T12:29:40.002Z,100111.84
2022-10-16T12:32:48.471Z,100103.50
2022-10-16T12:35:30.149Z,100103.34
2022-10-16T12:38:09.125Z,100101.03
2022-10-16T12:40:39.146Z,100098.94
2022-10-16T12:43:23.814Z,100105.22
2022-10-16T12:46:10.841Z,100091.38
2022-10-16T12:48:55.412Z,100093.91
2022-10-16T12:51:37.899Z,100107.53
2022-10-16T12:54:20.307Z,100101.47
2022-10-16T12:57:02.273Z,100093.06
2022-10-16T12:59:44.181Z,100094.31
2022-10-16T13:02:36.017Z,100097.47
2022-10-16T13:05:12.043Z,100102.50
2022-10-16T13:07:57.011Z,100106.28
2022-10-16T13:11:03.824Z,100108.16
2022-10-16T13:13:56.578Z,100102.31
2022-10-16T13:16:54.001Z,100093.06
2022-10-16T13:19:45.202Z,100086.78
2022-10-16T13:22:31.345Z,100078.59
2022-10-16T13:25:19.325Z,100087.41
2022-10-16T13:28:04.272Z,100090.56
2022-10-16T13:30:42.000Z,100088.84
2022-10-16T13:33:18.676Z,100086.13
2022-10-16T13:35:55.460Z,100100.59
2022-10-16T13:38:33.167Z,100093.50
2022-10-16T13:41:12.925Z,100098.09
2022-10-16T13:43:47.228Z,100105.03
2022-10-16T13:46:19.807Z,100091.38
2022-10-16T13:49:02.074Z,100102.69
2022-10-16T13:51:30.369Z,100106.88
2022-10-16T13:53:58.570Z,100113.16
2022-10-16T13:56:34.139Z,100106.25
2022-10-16T13:59:07.133Z,100100.19
2022-10-16T14:01:44.854Z,100096.00
2022-10-16T14:04:15.092Z,100096.81
2022-10-16T14:06:46.097Z,100096.63
2022-10-16T14:09:31.323Z,100085.94
2022-10-16T14:12:03.794Z,100085.94
2022-10-16T14:14:42.586Z,100076.50
2022-10-16T14:17:27.697Z,100076.94
2022-10-16T14:20:04.156Z,100071.06
2022-10-16T14:22:43.700Z,100073.34
2022-10-16T14:25:22.868Z,100076.47
2022-10-16T14:28:16.134Z,100073.34
2022-10-16T14:31:01.196Z,100073.38
2022-10-16T14:33:31.046Z,100066.25
2022-10-16T14:36:05.439Z,100068.34
2022-10-16T14:38:33.811Z,100072.94
2022-10-16T14:41:02.180Z,100066.66
2022-10-16T14:43:39.123Z,100059.09
2022-10-16T14:46:16.007Z,100048.63
2022-10-16T14:48:45.347Z,100043.78
2022-10-16T14:51:18.017Z,100045.28
2022-10-16T14:53:44.825Z,100046.97
2022-10-16T14:56:23.285Z,100041.91
2022-10-16T14:58:52.337Z,100039.41
2022-10-16T15:01:19.810Z,100035.00
2022-10-16T15:03:47.077Z,100035.63
2022-10-16T15:06:16.437Z,100030.63
2022-10-16T15:08:44.344Z,100020.34
2022-10-16T15:11:15.580Z,100024.72
2022-10-16T15:13:42.813Z,100020.97
2022-10-16T15:16:16.240Z,100019.28
2022-10-16T15:18:43.612Z,100015.53
2022-10-16T15:21:27.519Z,100003.38
2022-10-16T15:23:54.710Z,100009.44
2022-10-16T15:26:21.480Z,100013.44
2022-10-16T15:28:48.327Z,100006.28
2022-10-16T15:31:15.234Z,100001.69
2022-10-16T15:33:42.386Z,99995.81
2022-10-16T15:36:09.449Z,99986.56
2022-10-16T15:38:36.518Z,99977.16
2022-10-16T15:41:03.629Z,99978.63
2022-10-16T15:43:30.470Z,99976.13
2022-10-16T15:46:12.436Z,99972.97
2022-10-16T15:48:39.451Z,99970.28
2022-10-16T15:51:08.371Z,99960.44
2022-10-16T15:53:35.952Z,99952.66
2022-10-16T15:56:07.685Z,99962.72
2022-10-16T15:58:35.156Z,99953.91
2022-10-16T16:01:03.054Z,99963.56
2022-10-16T16:03:30.199Z,99955.16
2022-10-16T16:05:58.096Z,99943.03
2022-10-16T16:08:25.016Z,99928.75
2022-10-16T16:11:12.652Z,99925.19
2022-10-16T16:13:40.001Z,99923.31
2022-10-16T16:16:12.300Z,99930.00
2022-10-16T16:18:40.122Z,99920.38
2022-10-16T16:21:07.501Z,99911.16
2022-10-16T16:23:34.745Z,99911.56
2022-10-16T16:26:25.064Z,99905.69
2022-10-16T16:28:52.023Z,99900.69
2022-10-16T16:31:19.073Z,99896.47
2022-10-16T16:33:46.084Z,99914.25
2022-10-16T16:36:15.897Z,99918.25
2022-10-16T16:38:43.022Z,99922.84
2022-10-16T16:41:26.443Z,99921.56
2022-10-16T16:43:54.964Z,99926.16
2022-10-16T16:46:22.773Z,99923.03
2022-10-16T16:48:54.616Z,99921.56
2022-10-16T16:51:21.535Z,99908.38
2022-10-16T16:53:53.759Z,99914.00
2022-10-16T16:56:23.436Z,99916.09
2022-10-16T16:58:53.191Z,99919.63
2022-10-16T17:01:21.631Z,99936.34
2022-10-16T17:03:53.183Z,99922.94
2022-10-16T17:06:27.541Z,99922.31
2022-10-16T17:08:54.678Z,99916.25
2022-10-16T17:11:27.503Z,99914.16
2022-10-16T17:13:57.129Z,99923.16
2022-10-16T17:16:34.243Z,99910.63
2022-10-16T17:19:04.039Z,99901.41
2022-10-16T17:21:33.065Z,99899.53
2022-10-16T17:24:01.938Z,99888.88
2022-10-16T17:26:29.989Z,99893.28
2022-10-16T17:29:00.590Z,99887.22
2022-10-16T17:31:34.944Z,99890.56
2022-10-16T17:34:04.991Z,99891.00
2022-10-16T17:36:36.076Z,99888.50
2022-10-16T17:39:10.985Z,99878.66
2022-10-16T17:41:38.543Z,99892.25
2022-10-16T17:44:07.461Z,99874.69
2022-10-16T17:46:38.386Z,99887.25
2022-10-16T17:49:09.905Z,99881.56
2022-10-16T17:51:36.843Z,99881.81
2022-10-16T17:54:03.816Z,99888.50
2022-10-16T17:56:31.605Z,99878.44
2022-10-16T17:59:01.981Z,99869.06
2022-10-16T18:01:40.596Z,99868.00
2022-10-16T18:04:15.052Z,99867.59
2022-10-16T18:06:44.075Z,99873.03
2022-10-16T18:09:15.217Z,99860.66
2022-10-16T18:11:42.092Z,99866.75
2022-10-16T18:14:09.130Z,99870.13
2022-10-16T18:16:37.029Z,99866.53
2022-10-16T18:19:03.975Z,99859.44
2022-10-16T18:21:30.951Z,99858.38
2022-10-16T18:24:01.489Z,99871.34
2022-10-16T18:26:28.856Z,99862.78
2022-10-16T18:28:57.602Z,99850.22
2022-10-16T18:31:26.760Z,99846.28
2022-10-16T18:33:56.007Z,99842.69
2022-10-16T18:36:32.821Z,99837.69
2022-10-16T18:39:02.021Z,99827.84
2022-10-16T18:41:29.106Z,99828.47
2022-10-16T18:43:59.282Z,99825.94
2022-10-16T18:46:26.693Z,99814.88
2022-10-16T18:48:54.800Z,99823.66
2022-10-16T18:51:26.201Z,99820.31
2022-10-16T18:54:00.272Z,99816.97
2022-10-16T18:56:30.481Z,99814.88
2022-10-16T18:59:00.872Z,99805.03
2022-10-16T19:01:30.383Z,99798.75
2022-10-16T19:04:13.873Z,99799.59
2022-10-16T19:06:47.105Z,99794.38
2022-10-16T19:09:16.859Z,99800.03
2022-10-16T19:11:44.708Z,99787.66
2022-10-16T19:14:14.094Z,99790.81
2022-10-16T19:16:43.190Z,99780.16
2022-10-16T19:19:18.470Z,99772.19
2022-10-16T19:21:47.945Z,99784.75
2022-10-16T19:24:16.718Z,99776.38
2022-10-16T19:26:44.078Z,99772.59
2022-10-16T19:29:11.977Z,99756.09
2022-10-16T19:31:39.907Z,99742.28
2022-10-16T19:34:07.675Z,99747.50
2022-10-16T19:36:37.111Z,99740.81
2022-10-16T19:39:08.628Z,99745.00
2022-10-16T19:41:37.215Z,99736.41
2022-10-16T19:44:08.306Z,99740.81
2022-10-16T19:46:36.136Z,99734.09
2022-10-16T19:49:06.463Z,99727.84
2022-10-16T19:51:34.294Z,99733.28
2022-10-16T19:54:05.201Z,99729.53
2022-10-16T19:56:33.941Z,99723.44
2022-10-16T19:59:01.404Z,99718.00
2022-10-16T20:01:31.610Z,99706.47
2022-10-16T20:03:59.030Z,99705.22
2022-10-16T20:06:26.676Z,99696.03
2022-10-16T20:08:55.281Z,99686.00
2022-10-16T20:11:26.441Z,99677.19
2022-10-16T20:13:53.692Z,99657.56
2022-10-16T20:16:21.153Z,99654.22
2022-10-16T20:18:51.249Z,99678.47
2022-10-16T20:21:29.853Z,99675.13
2022-10-16T20:23:57.814Z,99664.88
2022-10-16T20:26:26.197Z,99654.66
2022-10-16T20:28:54.521Z,99667.19
2022-10-16T20:31:25.686Z,99641.47
2022-10-16T20:33:55.272Z,99647.53
2022-10-16T20:36:24.777Z,99646.06
2022-10-16T20:38:52.029Z,99635.84
2022-10-16T20:41:19.542Z,99657.56
2022-10-16T20:43:48.573Z,99653.81
2022-10-16T20:46:20.484Z,99643.34
2022-10-16T20:48:47.850Z,99633.78
2022-10-16T20:51:24.710Z,99626.84
2022-10-16T20:54:04.256Z,99631.47
2022-10-16T20:56:34.763Z,99630.81
2022-10-16T20:59:01.612Z,99622.47
2022-10-16T21:01:31.205Z,99632.31
2022-10-16T21:04:02.095Z,99615.56
2022-10-16T21:06:32.536Z,99607.81
2022-10-16T21:09:04.232Z,99618.28
2022-10-16T21:11:34.887Z,99612.84
2022-10-16T21:14:05.864Z,99604.25
2022-10-16T21:16:34.525Z,99595.28
2022-10-16T21:19:01.492Z,99600.50
2022-10-16T21:21:32.360Z,99596.09
2022-10-16T21:24:00.667Z,99594.41
2022-10-16T21:26:29.143Z,99582.72
2022-10-16T21:29:02.117Z,99587.53
2022-10-16T21:31:30.182Z,99585.25
2022-10-16T21:33:57.769Z,99574.13
2022-10-16T21:36:28.744Z,99569.53
2022-10-16T21:38:56.773Z,99564.53
2022-10-16T21:41:27.365Z,99563.88
2022-10-16T21:43:56.467Z,99573.50
2022-10-16T21:46:28.208Z,99579.75
2022-10-16T21:49:00.849Z,99567.25
2022-10-16T21:51:34.047Z,99566.78
2022-10-16T21:54:02.294Z,99565.75
2022-10-16T21:56:29.408Z,99550.47
2022-10-16T21:58:56.464Z,99556.97
2022-10-16T22:01:25.937Z,99565.31
2022-10-16T22:03:53.095Z,99580.19
2022-10-16T22:06:24.391Z,99592.91
2022-10-16T22:08:53.312Z,99570.75
2022-10-16T22:11:27.962Z,99560.91
2022-10-16T22:13:57.051Z,99572.63
2022-10-16T22:16:27.160Z,99573.47
2022-10-16T22:18:56.353Z,99566.97
2022-10-16T22:21:24.318Z,99567.38
2022-10-16T22:23:51.923Z,99577.63
2022-10-16T22:26:18.785Z,99575.53
2022-10-16T22:28:45.776Z,99578.44
2022-10-16T22:31:14.633Z,99591.81
2022-10-16T22:33:42.231Z,99597.25
2022-10-16T22:36:13.462Z,99574.66
2022-10-16T22:38:40.664Z,99567.72
2022-10-16T22:41:13.019Z,99569.38
2022-10-16T22:43:44.145Z,99562.28
2022-10-16T22:46:18.454Z,99562.69
2022-10-16T22:48:45.598Z,99575.66
2022-10-16T22:51:17.398Z,99584.84
2022-10-16T22:53:46.735Z,99575.84
2022-10-16T22:56:15.512Z,99569.75
2022-10-16T22:58:43.469Z,99584.41
2022-10-16T23:01:30.901Z,99592.16
2022-10-16T23:03:57.971Z,99585.63
2022-10-16T23:06:25.139Z,99591.06
2022-10-16T23:08:59.073Z,99601.13
2022-10-16T23:11:26.983Z,99596.13
2022-10-16T23:13:53.950Z,99594.66
2022-10-16T23:16:23.113Z,99586.72
2022-10-16T23:18:50.832Z,99591.53
2022-10-16T23:21:22.005Z,99600.97
2022-10-16T23:23:51.886Z,99593.84
2022-10-16T23:26:23.837Z,99577.97
2022-10-16T23:28:50.984Z,99588.66
2022-10-16T23:31:18.819Z,99604.75
2022-10-16T23:33:45.701Z,99601.59
2022-10-16T23:36:17.096Z,99591.75
2022-10-16T23:38:44.926Z,99599.69
2022-10-16T23:41:11.995Z,99586.69
2022-10-16T23:43:40.560Z,99590.44
2022-10-16T23:46:10.067Z,99593.41
2022-10-16T23:48:40.270Z,99584.16
2022-10-16T23:51:08.842Z,99575.97
2022-10-16T23:53:35.970Z,99581.56
2022-10-16T23:56:02.802Z,99589.94
2022-10-16T23:58:29.609Z,99601.44
